sensor_id;sensor_type;location;lat;lon;timestamp;pressure;altitude;pressure_sealevel;temperature;humidity
11830;BME280;5972;42.134;24.718;2023-01-19T00:01:46;98766.81;;;13.63;100.00
11830;BME280;5972;42.134;24.718;2023-01-19T00:04:12;98740.38;;;13.53;100.00
11830;BME280;5972;42.134;24.718;2023-01-19T00:06:39;98768.75;;;13.63;100.00
11830;BME280;5972;42.134;24.718;2023-01-19T00:09:06;98750.44;;;13.49;100.00
11830;BME280;5972;42.134;24.718;2023-01-19T00:11:34;98775.75;;;13.64;100.00
11830;BME280;5972;42.134;24.718;2023-01-19T00:14:01;98754.75;;;13.57;100.00
11830;BME280;5972;42.134;24.718;2023-01-19T00:16:28;98793.06;;;13.38;100.00
11830;BME280;5972;42.134;24.718;2023-01-19T00:18:55;98793.06;;;13.31;100.00
11830;BME280;5972;42.134;24.718;2023-01-19T00:21:21;98778.69;;;13.30;100.00
11830;BME280;5972;42.134;24.718;2023-01-19T00:23:48;98773.63;;;13.25;100.00
11830;BME280;5972;42.134;24.718;2023-01-19T00:26:19;98753.69;;;13.07;100.00
11830;BME280;5972;42.134;24.718;2023-01-19T00:28:49;98752.19;;;13.13;100.00
11830;BME280;5972;42.134;24.718;2023-01-19T00:31:18;98777.84;;;13.19;100.00
11830;BME280;5972;42.134;24.718;2023-01-19T00:33:46;98771.25;;;13.20;100.00
11830;BME280;5972;42.134;24.718;2023-01-19T00:36:13;98778.78;;;13.48;100.00
11830;BME280;5972;42.134;24.718;2023-01-19T00:38:41;98783.81;;;13.46;100.00
11830;BME280;5972;42.134;24.718;2023-01-19T00:41:07;98796.19;;;13.40;100.00
11830;BME280;5972;42.134;24.718;2023-01-19T00:43:34;98794.72;;;13.57;100.00
11830;BME280;5972;42.134;24.718;2023-01-19T00:46:02;98781.78;;;13.32;100.00
11830;BME280;5972;42.134;24.718;2023-01-19T00:48:29;98803.09;;;13.23;100.00
11830;BME280;5972;42.134;24.718;2023-01-19T00:50:56;98758.94;;;13.41;100.00
11830;BME280;5972;42.134;24.718;2023-01-19T00:53:24;98785.84;;;13.67;100.00
11830;BME280;5972;42.134;24.718;2023-01-19T00:55:51;98786.66;;;13.74;100.00
11830;BME280;5972;42.134;24.718;2023-01-19T00:58:17;98786.63;;;13.64;100.00
11830;BME280;5972;42.134;24.718;2023-01-19T01:00:44;98804.41;;;13.54;100.00
11830;BME280;5972;42.134;24.718;2023-01-19T01:03:12;98790.66;;;13.98;100.00
11830;BME280;5972;42.134;24.718;2023-01-19T01:05:39;98775.91;;;14.13;100.00
11830;BME280;5972;42.134;24.718;2023-01-19T01:08:06;98773.19;;;14.13;100.00
11830;BME280;5972;42.134;24.718;2023-01-19T01:10:33;98788.84;;;14.52;100.00
11830;BME280;5972;42.134;24.718;2023-01-19T01:13:00;98768.22;;;14.62;100.00
11830;BME280;5972;42.134;24.718;2023-01-19T01:15:27;98780.28;;;14.57;100.00
11830;BME280;5972;42.134;24.718;2023-01-19T01:17:54;98766.22;;;14.34;100.00
11830;BME280;5972;42.134;24.718;2023-01-19T01:20:25;98789.50;;;14.10;100.00
11830;BME280;5972;42.134;24.718;2023-01-19T01:22:53;98788.34;;;14.11;100.00
11830;BME280;5972;42.134;24.718;2023-01-19T01:25:22;98780.13;;;13.86;100.00
11830;BME280;5972;42.134;24.718;2023-01-19T01:27:51;98785.84;;;13.63;100.00
11830;BME280;5972;42.134;24.718;2023-01-19T01:30:19;98789.50;;;13.20;100.00
11830;BME280;5972;42.134;24.718;2023-01-19T01:32:47;98760.38;;;12.69;100.00
11830;BME280;5972;42.134;24.718;2023-01-19T01:35:14;98799.28;;;12.87;100.00
11830;BME280;5972;42.134;24.718;2023-01-19T01:37:42;98765.97;;;12.87;100.00
11830;BME280;5972;42.134;24.718;2023-01-19T01:40:11;98760.50;;;12.83;100.00
11830;BME280;5972;42.134;24.718;2023-01-19T01:42:38;98770.03;;;12.63;100.00
11830;BME280;5972;42.134;24.718;2023-01-19T01:45:26;98802.13;;;12.17;100.00
11830;BME280;5972;42.134;24.718;2023-01-19T01:47:57;98801.56;;;12.38;100.00
11830;BME280;5972;42.134;24.718;2023-01-19T01:50:27;98811.00;;;12.51;100.00
11830;BME280;5972;42.134;24.718;2023-01-19T01:53:11;98780.09;;;12.22;100.00
11830;BME280;5972;42.134;24.718;2023-01-19T01:55:42;98825.34;;;12.48;100.00
11830;BME280;5972;42.134;24.718;2023-01-19T01:58:11;98816.41;;;12.47;100.00
11830;BME280;5972;42.134;24.718;2023-01-19T02:00:39;98814.84;;;12.46;100.00
11830;BME280;5972;42.134;24.718;2023-01-19T02:03:24;98800.59;;;12.57;100.00
11830;BME280;5972;42.134;24.718;2023-01-19T02:05:52;98818.13;;;12.66;100.00
11830;BME280;5972;42.134;24.718;2023-01-19T02:08:26;98790.69;;;12.75;100.00
11830;BME280;5972;42.134;24.718;2023-01-19T02:11:13;98808.75;;;12.60;100.00
11830;BME280;5972;42.134;24.718;2023-01-19T02:13:59;98813.72;;;12.51;100.00
11830;BME280;5972;42.134;24.718;2023-01-19T02:16:26;98830.56;;;12.30;100.00
11830;BME280;5972;42.134;24.718;2023-01-19T02:18:54;98820.44;;;12.27;100.00
11830;BME280;5972;42.134;24.718;2023-01-19T02:21:24;98772.41;;;12.28;100.00
11830;BME280;5972;42.134;24.718;2023-01-19T02:23:56;98802.78;;;12.40;100.00
11830;BME280;5972;42.134;24.718;2023-01-19T02:26:26;98795.94;;;12.54;100.00
11830;BME280;5972;42.134;24.718;2023-01-19T02:28:58;98811.00;;;12.51;100.00
11830;BME280;5972;42.134;24.718;2023-01-19T02:31:27;98808.13;;;12.74;100.00
11830;BME280;5972;42.134;24.718;2023-01-19T02:33:55;98803.97;;;12.87;100.00
11830;BME280;5972;42.134;24.718;2023-01-19T02:36:24;98802.50;;;13.00;100.00
11830;BME280;5972;42.134;24.718;2023-01-19T02:38:55;98792.44;;;13.04;100.00
11830;BME280;5972;42.134;24.718;2023-01-19T02:41:26;98780.38;;;12.98;100.00
11830;BME280;5972;42.134;24.718;2023-01-19T02:43:54;98761.22;;;12.77;100.00
11830;BME280;5972;42.134;24.718;2023-01-19T02:46:23;98809.47;;;12.98;100.00
11830;BME280;5972;42.134;24.718;2023-01-19T02:48:50;98798.84;;;12.78;100.00
11830;BME280;5972;42.134;24.718;2023-01-19T02:51:17;98789.25;;;12.91;100.00
11830;BME280;5972;42.134;24.718;2023-01-19T02:53:58;98809.13;;;13.03;100.00
11830;BME280;5972;42.134;24.718;2023-01-19T02:56:41;98791.25;;;12.98;100.00
11830;BME280;5972;42.134;24.718;2023-01-19T02:59:15;98821.72;;;12.77;100.00
11830;BME280;5972;42.134;24.718;2023-01-19T03:01:59;98812.31;;;12.64;100.00
11830;BME280;5972;42.134;24.718;2023-01-19T03:04:35;98839.44;;;12.64;100.00
11830;BME280;5972;42.134;24.718;2023-01-19T03:07:10;98842.09;;;12.57;100.00
11830;BME280;5972;42.134;24.718;2023-01-19T03:09:44;98809.75;;;12.41;100.00
11830;BME280;5972;42.134;24.718;2023-01-19T03:12:21;98832.41;;;12.60;100.00
11830;BME280;5972;42.134;24.718;2023-01-19T03:14:52;98838.41;;;12.39;100.00
11830;BME280;5972;42.134;24.718;2023-01-19T03:17:21;98819.50;;;12.49;100.00
11830;BME280;5972;42.134;24.718;2023-01-19T03:19:49;98829.94;;;12.44;100.00
11830;BME280;5972;42.134;24.718;2023-01-19T03:22:21;98819.28;;;12.25;100.00
11830;BME280;5972;42.134;24.718;2023-01-19T03:24:51;98830.31;;;12.42;100.00
11830;BME280;5972;42.134;24.718;2023-01-19T03:27:24;98818.72;;;12.49;100.00
11830;BME280;5972;42.134;24.718;2023-01-19T03:29:52;98844.25;;;12.07;100.00
11830;BME280;5972;42.134;24.718;2023-01-19T03:32:22;98825.09;;;12.27;100.00
11830;BME280;5972;42.134;24.718;2023-01-19T03:34:54;98835.13;;;12.23;100.00
11830;BME280;5972;42.134;24.718;2023-01-19T03:37:23;98824.16;;;12.12;100.00
11830;BME280;5972;42.134;24.718;2023-01-19T03:39:52;98836.97;;;12.15;100.00
11830;BME280;5972;42.134;24.718;2023-01-19T03:42:19;98840.91;;;12.21;100.00
11830;BME280;5972;42.134;24.718;2023-01-19T03:44:46;98809.81;;;12.12;100.00
11830;BME280;5972;42.134;24.718;2023-01-19T03:47:16;98851.28;;;12.12;100.00
11830;BME280;5972;42.134;24.718;2023-01-19T03:49:45;98831.94;;;12.14;100.00
11830;BME280;5972;42.134;24.718;2023-01-19T03:52:12;98829.91;;;12.07;100.00
11830;BME280;5972;42.134;24.718;2023-01-19T03:54:39;98841.38;;;11.93;100.00
11830;BME280;5972;42.134;24.718;2023-01-19T03:57:07;98832.91;;;11.98;100.00
11830;BME280;5972;42.134;24.718;2023-01-19T03:59:34;98827.13;;;12.00;100.00
11830;BME280;5972;42.134;24.718;2023-01-19T04:02:01;98840.00;;;11.77;100.00
11830;BME280;5972;42.134;24.718;2023-01-19T04:04:28;98859.91;;;11.61;100.00
11830;BME280;5972;42.134;24.718;2023-01-19T04:06:55;98858.78;;;11.66;100.00
11830;BME280;5972;42.134;24.718;2023-01-19T04:09:22;98832.69;;;11.24;100.00
11830;BME280;5972;42.134;24.718;2023-01-19T04:11:49;98866.75;;;11.52;100.00
11830;BME280;5972;42.134;24.718;2023-01-19T04:14:17;98831.00;;;11.43;100.00
11830;BME280;5972;42.134;24.718;2023-01-19T04:16:44;98834.28;;;11.55;100.00
11830;BME280;5972;42.134;24.718;2023-01-19T04:19:11;98861.09;;;11.38;100.00
11830;BME280;5972;42.134;24.718;2023-01-19T04:21:37;98841.06;;;11.42;100.00
11830;BME280;5972;42.134;24.718;2023-01-19T04:24:05;98839.22;;;11.50;100.00
11830;BME280;5972;42.134;24.718;2023-01-19T04:26:32;98850.84;;;11.50;100.00
11830;BME280;5972;42.134;24.718;2023-01-19T04:28:59;98864.84;;;11.82;100.00
11830;BME280;5972;42.134;24.718;2023-01-19T04:31:27;98852.75;;;11.76;100.00
11830;BME280;5972;42.134;24.718;2023-01-19T04:33:54;98868.00;;;11.88;100.00
11830;BME280;5972;42.134;24.718;2023-01-19T04:36:21;98859.00;;;12.10;100.00
11830;BME280;5972;42.134;24.718;2023-01-19T04:38:48;98865.72;;;12.20;100.00
11830;BME280;5972;42.134;24.718;2023-01-19T04:41:15;98837.84;;;12.23;100.00
11830;BME280;5972;42.134;24.718;2023-01-19T04:43:42;98851.56;;;12.37;100.00
11830;BME280;5972;42.134;24.718;2023-01-19T04:46:09;98842.72;;;12.43;100.00
11830;BME280;5972;42.134;24.718;2023-01-19T04:48:37;98864.50;;;12.17;100.00
11830;BME280;5972;42.134;24.718;2023-01-19T04:51:04;98869.19;;;11.87;100.00
11830;BME280;5972;42.134;24.718;2023-01-19T04:53:31;98853.66;;;11.84;100.00
11830;BME280;5972;42.134;24.718;2023-01-19T04:55:58;98848.66;;;11.86;100.00
11830;BME280;5972;42.134;24.718;2023-01-19T04:58:25;98849.81;;;11.88;100.00
11830;BME280;5972;42.134;24.718;2023-01-19T05:00:52;98869.63;;;11.66;100.00
11830;BME280;5972;42.134;24.718;2023-01-19T05:03:19;98857.34;;;11.72;100.00
11830;BME280;5972;42.134;24.718;2023-01-19T05:05:47;98864.34;;;11.73;100.00
11830;BME280;5972;42.134;24.718;2023-01-19T05:08:14;98879.28;;;11.63;100.00
11830;BME280;5972;42.134;24.718;2023-01-19T05:10:40;98865.28;;;11.58;100.00
11830;BME280;5972;42.134;24.718;2023-01-19T05:13:07;98863.44;;;11.65;100.00
11830;BME280;5972;42.134;24.718;2023-01-19T05:15:34;98868.47;;;11.63;100.00
11830;BME280;5972;42.134;24.718;2023-01-19T05:18:01;98875.47;;;11.68;100.00
11830;BME280;5972;42.134;24.718;2023-01-19T05:20:27;98854.22;;;11.44;100.00
11830;BME280;5972;42.134;24.718;2023-01-19T05:22:56;98860.53;;;11.51;100.00
11830;BME280;5972;42.134;24.718;2023-01-19T05:25:22;98869.44;;;11.78;100.00
11830;BME280;5972;42.134;24.718;2023-01-19T05:27:49;98874.59;;;11.60;100.00
11830;BME280;5972;42.134;24.718;2023-01-19T05:30:16;98883.38;;;11.54;100.00
11830;BME280;5972;42.134;24.718;2023-01-19T05:32:43;98876.63;;;11.67;100.00
11830;BME280;5972;42.134;24.718;2023-01-19T05:35:10;98865.81;;;11.71;100.00
11830;BME280;5972;42.134;24.718;2023-01-19T05:37:37;98878.03;;;11.84;100.00
11830;BME280;5972;42.134;24.718;2023-01-19T05:40:07;98871.50;;;11.88;100.00
11830;BME280;5972;42.134;24.718;2023-01-19T05:42:35;98862.56;;;11.84;100.00
11830;BME280;5972;42.134;24.718;2023-01-19T05:45:03;98867.53;;;11.79;100.00
11830;BME280;5972;42.134;24.718;2023-01-19T05:47:29;98871.19;;;11.67;100.00
11830;BME280;5972;42.134;24.718;2023-01-19T05:49:57;98886.31;;;11.94;100.00
11830;BME280;5972;42.134;24.718;2023-01-19T05:52:26;98880.28;;;11.78;100.00
11830;BME280;5972;42.134;24.718;2023-01-19T05:54:53;98914.69;;;12.04;100.00
11830;BME280;5972;42.134;24.718;2023-01-19T05:57:23;98911.03;;;12.19;100.00
11830;BME280;5972;42.134;24.718;2023-01-19T05:59:49;98933.88;;;12.18;100.00
11830;BME280;5972;42.134;24.718;2023-01-19T06:02:16;98917.75;;;12.29;100.00
11830;BME280;5972;42.134;24.718;2023-01-19T06:04:43;98916.81;;;11.88;100.00
11830;BME280;5972;42.134;24.718;2023-01-19T06:07:10;98929.69;;;11.94;100.00
11830;BME280;5972;42.134;24.718;2023-01-19T06:09:37;98922.53;;;12.09;100.00
11830;BME280;5972;42.134;24.718;2023-01-19T06:12:04;98926.16;;;12.20;100.00
11830;BME280;5972;42.134;24.718;2023-01-19T06:14:32;98904.94;;;12.26;100.00
11830;BME280;5972;42.134;24.718;2023-01-19T06:17:01;98895.94;;;12.22;100.00
11830;BME280;5972;42.134;24.718;2023-01-19T06:19:28;98910.88;;;12.38;100.00
11830;BME280;5972;42.134;24.718;2023-01-19T06:21:54;98937.69;;;12.14;100.00
11830;BME280;5972;42.134;24.718;2023-01-19T06:24:22;98911.94;;;12.30;100.00
11830;BME280;5972;42.134;24.718;2023-01-19T06:26:49;98890.13;;;12.20;100.00
11830;BME280;5972;42.134;24.718;2023-01-19T06:29:16;98917.41;;;12.34;100.00
11830;BME280;5972;42.134;24.718;2023-01-19T06:31:44;98924.50;;;12.42;100.00
11830;BME280;5972;42.134;24.718;2023-01-19T06:34:11;98881.72;;;12.32;100.00
11830;BME280;5972;42.134;24.718;2023-01-19T06:36:38;98945.31;;;12.68;100.00
11830;BME280;5972;42.134;24.718;2023-01-19T06:39:05;98924.56;;;12.49;100.00
11830;BME280;5972;42.134;24.718;2023-01-19T06:41:33;98929.97;;;12.49;100.00
11830;BME280;5972;42.134;24.718;2023-01-19T06:44:00;98937.59;;;12.36;100.00
11830;BME280;5972;42.134;24.718;2023-01-19T06:46:27;98949.38;;;12.47;100.00
11830;BME280;5972;42.134;24.718;2023-01-19T06:48:55;98950.22;;;12.55;100.00
11830;BME280;5972;42.134;24.718;2023-01-19T06:51:22;98945.28;;;12.64;100.00
11830;BME280;5972;42.134;24.718;2023-01-19T06:53:49;98939.19;;;12.74;100.00
11830;BME280;5972;42.134;24.718;2023-01-19T06:56:16;98947.25;;;12.67;100.00
11830;BME280;5972;42.134;24.718;2023-01-19T06:58:45;98939.19;;;12.41;100.00
11830;BME280;5972;42.134;24.718;2023-01-19T07:01:12;98915.78;;;12.26;100.00
11830;BME280;5972;42.134;24.718;2023-01-19T07:03:38;98930.16;;;12.30;100.00
11830;BME280;5972;42.134;24.718;2023-01-19T07:06:07;98941.25;;;12.51;100.00
11830;BME280;5972;42.134;24.718;2023-01-19T07:08:34;98948.00;;;12.64;100.00
11830;BME280;5972;42.134;24.718;2023-01-19T07:11:03;98956.25;;;12.75;100.00
11830;BME280;5972;42.134;24.718;2023-01-19T07:13:30;98974.22;;;12.86;100.00
11830;BME280;5972;42.134;24.718;2023-01-19T07:15:57;98954.75;;;13.14;100.00
11830;BME280;5972;42.134;24.718;2023-01-19T07:18:24;98949.50;;;13.36;100.00
11830;BME280;5972;42.134;24.718;2023-01-19T07:20:51;98949.13;;;13.37;100.00
11830;BME280;5972;42.134;24.718;2023-01-19T07:23:19;98948.66;;;13.28;100.00
11830;BME280;5972;42.134;24.718;2023-01-19T07:25:46;98950.94;;;13.22;100.00
11830;BME280;5972;42.134;24.718;2023-01-19T07:28:13;98949.81;;;13.27;100.00
11830;BME280;5972;42.134;24.718;2023-01-19T07:30:41;98942.66;;;13.52;100.00
11830;BME280;5972;42.134;24.718;2023-01-19T07:33:08;98938.56;;;13.80;100.00
11830;BME280;5972;42.134;24.718;2023-01-19T07:35:35;98936.38;;;14.10;100.00
11830;BME280;5972;42.134;24.718;2023-01-19T07:38:02;98940.78;;;14.29;100.00
11830;BME280;5972;42.134;24.718;2023-01-19T07:40:30;98950.28;;;14.77;100.00
11830;BME280;5972;42.134;24.718;2023-01-19T07:42:58;98947.69;;;15.55;100.00
11830;BME280;5972;42.134;24.718;2023-01-19T07:45:24;98952.16;;;16.47;100.00
11830;BME280;5972;42.134;24.718;2023-01-19T07:47:51;98967.44;;;17.69;90.55
11830;BME280;5972;42.134;24.718;2023-01-19T07:50:18;98947.81;;;18.83;77.31
11830;BME280;5972;42.134;24.718;2023-01-19T07:52:49;98951.34;;;19.83;66.71
11830;BME280;5972;42.134;24.718;2023-01-19T07:55:17;98918.56;;;19.73;61.44
11830;BME280;5972;42.134;24.718;2023-01-19T07:57:47;98931.59;;;19.45;63.40
11830;BME280;5972;42.134;24.718;2023-01-19T08:00:15;98946.56;;;19.64;62.18
11830;BME280;5972;42.134;24.718;2023-01-19T08:02:44;98940.22;;;19.90;61.09
11830;BME280;5972;42.134;24.718;2023-01-19T08:05:11;98925.34;;;20.87;55.66
11830;BME280;5972;42.134;24.718;2023-01-19T08:07:39;98937.53;;;21.54;52.12
11830;BME280;5972;42.134;24.718;2023-01-19T08:10:06;98938.28;;;22.45;48.01
11830;BME280;5972;42.134;24.718;2023-01-19T08:12:33;98937.94;;;22.84;47.00
11830;BME280;5972;42.134;24.718;2023-01-19T08:15:01;98941.81;;;23.12;45.04
11830;BME280;5972;42.134;24.718;2023-01-19T08:17:28;98943.44;;;23.47;44.46
11830;BME280;5972;42.134;24.718;2023-01-19T08:19:55;98933.03;;;24.33;42.60
11830;BME280;5972;42.134;24.718;2023-01-19T08:22:22;98945.41;;;24.72;41.18
11830;BME280;5972;42.134;24.718;2023-01-19T08:24:49;98946.88;;;23.39;42.96
11830;BME280;5972;42.134;24.718;2023-01-19T08:27:16;98949.59;;;24.85;40.79
11830;BME280;5972;42.134;24.718;2023-01-19T08:29:43;98935.34;;;25.27;40.72
11830;BME280;5972;42.134;24.718;2023-01-19T08:32:11;98939.41;;;25.53;39.77
11830;BME280;5972;42.134;24.718;2023-01-19T08:34:38;98959.28;;;25.52;38.73
11830;BME280;5972;42.134;24.718;2023-01-19T08:37:05;98945.09;;;24.48;39.75
11830;BME280;5972;42.134;24.718;2023-01-19T08:39:32;98951.69;;;24.72;40.30
11830;BME280;5972;42.134;24.718;2023-01-19T08:41:58;98961.31;;;25.60;39.47
11830;BME280;5972;42.134;24.718;2023-01-19T08:44:28;98941.78;;;25.73;39.03
11830;BME280;5972;42.134;24.718;2023-01-19T08:46:54;98939.19;;;25.79;38.88
11830;BME280;5972;42.134;24.718;2023-01-19T08:49:23;98928.88;;;25.30;38.84
11830;BME280;5972;42.134;24.718;2023-01-19T08:51:49;98935.72;;;24.98;39.32
11830;BME280;5972;42.134;24.718;2023-01-19T08:54:16;98943.06;;;23.71;42.11
11830;BME280;5972;42.134;24.718;2023-01-19T08:56:44;98926.53;;;25.10;40.22
11830;BME280;5972;42.134;24.718;2023-01-19T08:59:11;98927.53;;;25.35;39.22
11830;BME280;5972;42.134;24.718;2023-01-19T09:01:38;98921.00;;;25.69;38.73
11830;BME280;5972;42.134;24.718;2023-01-19T09:04:05;98914.84;;;26.19;37.79
11830;BME280;5972;42.134;24.718;2023-01-19T09:06:33;98915.91;;;25.58;37.61
11830;BME280;5972;42.134;24.718;2023-01-19T09:09:00;98930.19;;;24.24;39.17
11830;BME280;5972;42.134;24.718;2023-01-19T09:11:27;98918.66;;;25.58;37.95
11830;BME280;5972;42.134;24.718;2023-01-19T09:13:55;98910.06;;;26.47;36.47
11830;BME280;5972;42.134;24.718;2023-01-19T09:16:22;98908.59;;;26.70;36.04
11830;BME280;5972;42.134;24.718;2023-01-19T09:18:51;98897.84;;;26.54;35.95
11830;BME280;5972;42.134;24.718;2023-01-19T09:21:18;98902.69;;;25.98;36.38
11830;BME280;5972;42.134;24.718;2023-01-19T09:23:46;98916.97;;;26.52;35.66
11830;BME280;5972;42.134;24.718;2023-01-19T09:26:13;98909.72;;;26.63;35.08
11830;BME280;5972;42.134;24.718;2023-01-19T09:28:40;98906.56;;;26.88;34.88
11830;BME280;5972;42.134;24.718;2023-01-19T09:31:11;98907.00;;;27.20;34.07
11830;BME280;5972;42.134;24.718;2023-01-19T09:33:39;98878.13;;;26.52;34.92
11830;BME280;5972;42.134;24.718;2023-01-19T09:36:06;98878.03;;;26.88;34.43
11830;BME280;5972;42.134;24.718;2023-01-19T09:38:33;98874.53;;;27.35;34.00
11830;BME280;5972;42.134;24.718;2023-01-19T09:41:01;98883.03;;;27.31;34.10
11830;BME280;5972;42.134;24.718;2023-01-19T09:43:38;98848.41;;;27.42;34.38
11830;BME280;5972;42.134;24.718;2023-01-19T09:46:11;98881.69;;;27.51;33.58
11830;BME280;5972;42.134;24.718;2023-01-19T09:48:45;98871.97;;;27.70;34.18
11830;BME280;5972;42.134;24.718;2023-01-19T09:51:15;98859.47;;;26.94;34.77
11830;BME280;5972;42.134;24.718;2023-01-19T09:53:52;98850.66;;;26.02;35.67
11830;BME280;5972;42.134;24.718;2023-01-19T09:56:22;98858.25;;;25.07;37.60
11830;BME280;5972;42.134;24.718;2023-01-19T09:58:50;98845.59;;;24.57;38.70
11830;BME280;5972;42.134;24.718;2023-01-19T10:01:39;98843.84;;;24.20;39.64
11830;BME280;5972;42.134;24.718;2023-01-19T10:04:24;98835.47;;;24.11;39.03
11830;BME280;5972;42.134;24.718;2023-01-19T10:06:56;98819.44;;;24.58;37.70
11830;BME280;5972;42.134;24.718;2023-01-19T10:09:31;98852.13;;;24.81;37.20
11830;BME280;5972;42.134;24.718;2023-01-19T10:12:07;98824.88;;;24.71;36.38
11830;BME280;5972;42.134;24.718;2023-01-19T10:14:44;98840.56;;;25.14;36.92
11830;BME280;5972;42.134;24.718;2023-01-19T10:17:25;98841.69;;;25.98;35.96
11830;BME280;5972;42.134;24.718;2023-01-19T10:20:00;98837.56;;;25.85;35.58
11830;BME280;5972;42.134;24.718;2023-01-19T10:22:34;98806.75;;;25.37;36.10
11830;BME280;5972;42.134;24.718;2023-01-19T10:25:03;98833.53;;;25.40;35.33
11830;BME280;5972;42.134;24.718;2023-01-19T10:27:33;98839.59;;;24.99;36.76
11830;BME280;5972;42.134;24.718;2023-01-19T10:30:02;98825.22;;;25.40;35.83
11830;BME280;5972;42.134;24.718;2023-01-19T10:32:33;98816.78;;;25.62;35.52
11830;BME280;5972;42.134;24.718;2023-01-19T10:35:05;98819.66;;;25.31;35.48
11830;BME280;5972;42.134;24.718;2023-01-19T10:37:38;98789.03;;;25.07;35.73
11830;BME280;5972;42.134;24.718;2023-01-19T10:40:18;98775.81;;;25.20;33.68
11830;BME280;5972;42.134;24.718;2023-01-19T10:42:49;98804.94;;;25.71;32.93
11830;BME280;5972;42.134;24.718;2023-01-19T10:45:17;98809.75;;;26.21;32.15
11830;BME280;5972;42.134;24.718;2023-01-19T10:47:45;98785.28;;;26.29;31.52
11830;BME280;5972;42.134;24.718;2023-01-19T10:50:26;98780.59;;;25.47;32.32
11830;BME280;5972;42.134;24.718;2023-01-19T10:52:54;98802.94;;;24.85;32.57
11830;BME280;5972;42.134;24.718;2023-01-19T10:55:24;98785.47;;;24.49;32.36
11830;BME280;5972;42.134;24.718;2023-01-19T10:57:54;98773.50;;;24.52;31.93
11830;BME280;5972;42.134;24.718;2023-01-19T11:00:31;98796.91;;;25.27;31.38
11830;BME280;5972;42.134;24.718;2023-01-19T11:02:59;98785.69;;;25.40;31.24
11830;BME280;5972;42.134;24.718;2023-01-19T11:05:29;98784.28;;;25.90;30.21
11830;BME280;5972;42.134;24.718;2023-01-19T11:08:20;98786.97;;;26.68;29.14
11830;BME280;5972;42.134;24.718;2023-01-19T11:10:51;98770.88;;;27.05;27.88
11830;BME280;5972;42.134;24.718;2023-01-19T11:13:21;98786.19;;;27.24;28.04
11830;BME280;5972;42.134;24.718;2023-01-19T11:15:51;98778.13;;;27.50;28.31
11830;BME280;5972;42.134;24.718;2023-01-19T11:18:29;98751.50;;;27.58;28.13
11830;BME280;5972;42.134;24.718;2023-01-19T11:21:00;98779.22;;;27.05;25.49
11830;BME280;5972;42.134;24.718;2023-01-19T11:23:31;98756.91;;;25.55;27.86
11830;BME280;5972;42.134;24.718;2023-01-19T11:26:01;98763.53;;;25.40;29.18
11830;BME280;5972;42.134;24.718;2023-01-19T11:28:33;98764.47;;;25.18;29.06
11830;BME280;5972;42.134;24.718;2023-01-19T11:31:02;98779.34;;;25.30;28.15
11830;BME280;5972;42.134;24.718;2023-01-19T11:33:46;98776.31;;;24.70;28.04
11830;BME280;5972;42.134;24.718;2023-01-19T11:36:15;98770.31;;;24.22;27.80
11830;BME280;5972;42.134;24.718;2023-01-19T11:38:45;98758.56;;;23.87;28.71
11830;BME280;5972;42.134;24.718;2023-01-19T11:41:19;98777.38;;;23.80;28.24
11830;BME280;5972;42.134;24.718;2023-01-19T11:43:49;98786.94;;;23.44;27.36
11830;BME280;5972;42.134;24.718;2023-01-19T11:46:17;98762.81;;;23.01;27.93
11830;BME280;5972;42.134;24.718;2023-01-19T11:48:52;98755.84;;;22.97;27.63
11830;BME280;5972;42.134;24.718;2023-01-19T11:51:24;98752.72;;;22.73;27.99
11830;BME280;5972;42.134;24.718;2023-01-19T11:53:55;98762.50;;;22.61;28.64
11830;BME280;5972;42.134;24.718;2023-01-19T11:56:25;98740.22;;;22.81;27.48
11830;BME280;5972;42.134;24.718;2023-01-19T11:58:57;98742.97;;;22.81;27.48
11830;BME280;5972;42.134;24.718;2023-01-19T12:01:27;98744.09;;;22.84;27.59
11830;BME280;5972;42.134;24.718;2023-01-19T12:03:59;98731.84;;;22.47;27.11
11830;BME280;5972;42.134;24.718;2023-01-19T12:06:30;98750.47;;;22.93;27.18
11830;BME280;5972;42.134;24.718;2023-01-19T12:09:02;98757.97;;;22.93;27.72
11830;BME280;5972;42.134;24.718;2023-01-19T12:11:34;98742.75;;;22.88;27.62
11830;BME280;5972;42.134;24.718;2023-01-19T12:14:03;98738.38;;;22.40;27.33
11830;BME280;5972;42.134;24.718;2023-01-19T12:16:32;98745.28;;;22.83;26.96
11830;BME280;5972;42.134;24.718;2023-01-19T12:19:03;98718.00;;;22.97;26.50
11830;BME280;5972;42.134;24.718;2023-01-19T12:21:31;98725.75;;;22.90;26.72
11830;BME280;5972;42.134;24.718;2023-01-19T12:24:06;98752.63;;;23.11;26.12
11830;BME280;5972;42.134;24.718;2023-01-19T12:26:37;98738.16;;;22.72;26.34
11830;BME280;5972;42.134;24.718;2023-01-19T12:29:11;98727.44;;;22.62;26.96
11830;BME280;5972;42.134;24.718;2023-01-19T12:31:38;98742.09;;;22.59;27.27
11830;BME280;5972;42.134;24.718;2023-01-19T12:34:40;98735.50;;;22.56;27.45
11830;BME280;5972;42.134;24.718;2023-01-19T12:37:36;98720.97;;;22.30;27.01
11830;BME280;5972;42.134;24.718;2023-01-19T12:40:20;98674.53;;;21.78;27.09
11830;BME280;5972;42.134;24.718;2023-01-19T12:42:55;98703.38;;;21.86;27.68
11830;BME280;5972;42.134;24.718;2023-01-19T12:45:23;98702.31;;;21.84;27.92
11830;BME280;5972;42.134;24.718;2023-01-19T12:47:52;98714.97;;;21.94;27.63
11830;BME280;5972;42.134;24.718;2023-01-19T12:50:20;98685.31;;;21.73;27.71
11830;BME280;5972;42.134;24.718;2023-01-19T12:52:51;98706.75;;;22.07;27.88
11830;BME280;5972;42.134;24.718;2023-01-19T12:55:25;98710.59;;;22.22;27.83
11830;BME280;5972;42.134;24.718;2023-01-19T12:58:03;98701.41;;;21.87;28.64
11830;BME280;5972;42.134;24.718;2023-01-19T13:00:36;98719.72;;;21.93;28.78
11830;BME280;5972;42.134;24.718;2023-01-19T13:06:08;98700.84;;;21.67;29.20
11830;BME280;5972;42.134;24.718;2023-01-19T13:08:57;98731.59;;;21.90;29.50
11830;BME280;5972;42.134;24.718;2023-01-19T13:11:26;98740.50;;;22.23;29.32